Boley, Oklahoma
Current Conditions -  °F | °C
As of 5:15 AM on Saturday 01 Nov 2014 (Local Time) from KCQB Reporting Station
Clear Clear  
Wind Chill: 26°   Ceiling: Unl
Heat Index: 32°   Visibility: 7mi
Dew Point: 30°   Wind: 6mph
Humidity: 93%   Direction: 80°E
Pressure: 30.42"   Gusts: NA
Location:  35.49°N, 96.48°W
Report Text: KCQB 011015Z AUTO 08005KT 7SM CLR 00/M01 A3042 RMK AO2
Loading
Personal Weather Stations






























Interactive Weather Map New forecast layout! Learn more

10-Day Weather Forecast

Advertisements
Track Severe Weather on mobile